sensor_id;sensor_type;location;lat;lon;timestamp;P1;durP1;ratioP1;P2;durP2;ratioP2
38208;SDS011;24016;52.102;11.584;2022-09-01T00:01:19;2.13;;;1.40;;
38208;SDS011;24016;52.102;11.584;2022-09-01T00:03:48;2.33;;;1.30;;
38208;SDS011;24016;52.102;11.584;2022-09-01T00:06:17;2.37;;;1.20;;
38208;SDS011;24016;52.102;11.584;2022-09-01T00:08:50;3.42;;;1.38;;
38208;SDS011;24016;52.102;11.584;2022-09-01T00:11:18;2.15;;;1.40;;
38208;SDS011;24016;52.102;11.584;2022-09-01T00:13:45;2.38;;;1.30;;
38208;SDS011;24016;52.102;11.584;2022-09-01T00:16:12;4.18;;;1.40;;
38208;SDS011;24016;52.102;11.584;2022-09-01T00:18:40;2.30;;;1.30;;
38208;SDS011;24016;52.102;11.584;2022-09-01T00:21:09;1.73;;;1.33;;
38208;SDS011;24016;52.102;11.584;2022-09-01T00:23:35;2.95;;;1.60;;
38208;SDS011;24016;52.102;11.584;2022-09-01T00:26:01;2.30;;;1.30;;
38208;SDS011;24016;52.102;11.584;2022-09-01T00:28:28;2.38;;;1.38;;
38208;SDS011;24016;52.102;11.584;2022-09-01T00:30:53;3.53;;;1.70;;
38208;SDS011;24016;52.102;11.584;2022-09-01T00:33:19;4.03;;;1.42;;
38208;SDS011;24016;52.102;11.584;2022-09-01T00:35:44;5.53;;;1.60;;
38208;SDS011;24016;52.102;11.584;2022-09-01T00:38:10;4.07;;;1.55;;
38208;SDS011;24016;52.102;11.584;2022-09-01T00:40:36;4.18;;;1.70;;
38208;SDS011;24016;52.102;11.584;2022-09-01T00:43:12;2.65;;;1.48;;
38208;SDS011;24016;52.102;11.584;2022-09-01T00:45:39;2.58;;;1.65;;
38208;SDS011;24016;52.102;11.584;2022-09-01T00:48:05;4.60;;;1.60;;
38208;SDS011;24016;52.102;11.584;2022-09-01T00:50:31;7.15;;;1.73;;
38208;SDS011;24016;52.102;11.584;2022-09-01T00:52:57;4.25;;;1.58;;
38208;SDS011;24016;52.102;11.584;2022-09-01T00:55:26;2.72;;;1.38;;
38208;SDS011;24016;52.102;11.584;2022-09-01T00:57:54;2.83;;;1.40;;
38208;SDS011;24016;52.102;11.584;2022-09-01T01:00:23;2.60;;;1.40;;
38208;SDS011;24016;52.102;11.584;2022-09-01T01:02:51;4.13;;;1.77;;
38208;SDS011;24016;52.102;11.584;2022-09-01T01:05:23;4.03;;;2.03;;
38208;SDS011;24016;52.102;11.584;2022-09-01T01:07:55;2.33;;;1.60;;
38208;SDS011;24016;52.102;11.584;2022-09-01T01:10:21;2.42;;;1.52;;
38208;SDS011;24016;52.102;11.584;2022-09-01T01:12:50;5.88;;;2.00;;
38208;SDS011;24016;52.102;11.584;2022-09-01T01:15:17;2.85;;;1.58;;
38208;SDS011;24016;52.102;11.584;2022-09-01T01:17:43;2.70;;;1.60;;
38208;SDS011;24016;52.102;11.584;2022-09-01T01:20:11;3.15;;;1.70;;
38208;SDS011;24016;52.102;11.584;2022-09-01T01:25:56;1.73;;;1.47;;
38208;SDS011;24016;52.102;11.584;2022-09-01T01:33:32;3.78;;;1.80;;
38208;SDS011;24016;52.102;11.584;2022-09-01T01:36:04;2.40;;;1.40;;
38208;SDS011;24016;52.102;11.584;2022-09-01T01:38:31;3.17;;;1.35;;
38208;SDS011;24016;52.102;11.584;2022-09-01T01:41:00;3.72;;;1.60;;
38208;SDS011;24016;52.102;11.584;2022-09-01T01:43:27;6.43;;;1.60;;
38208;SDS011;24016;52.102;11.584;2022-09-01T01:45:54;1.92;;;1.10;;
38208;SDS011;24016;52.102;11.584;2022-09-01T01:48:26;2.38;;;1.58;;
38208;SDS011;24016;52.102;11.584;2022-09-01T01:50:53;3.00;;;1.40;;
38208;SDS011;24016;52.102;11.584;2022-09-01T01:53:22;4.00;;;1.65;;
38208;SDS011;24016;52.102;11.584;2022-09-01T01:55:48;4.15;;;1.50;;
38208;SDS011;24016;52.102;11.584;2022-09-01T01:58:17;2.63;;;1.30;;
38208;SDS011;24016;52.102;11.584;2022-09-01T02:00:44;2.55;;;1.48;;
38208;SDS011;24016;52.102;11.584;2022-09-01T02:03:11;2.38;;;1.40;;
38208;SDS011;24016;52.102;11.584;2022-09-01T02:05:41;2.92;;;1.50;;
38208;SDS011;24016;52.102;11.584;2022-09-01T02:08:08;1.55;;;1.20;;
38208;SDS011;24016;52.102;11.584;2022-09-01T02:10:37;3.90;;;1.60;;
38208;SDS011;24016;52.102;11.584;2022-09-01T02:13:06;3.60;;;1.70;;
38208;SDS011;24016;52.102;11.584;2022-09-01T02:15:36;2.30;;;1.30;;
38208;SDS011;24016;52.102;11.584;2022-09-01T02:18:11;2.42;;;1.40;;
38208;SDS011;24016;52.102;11.584;2022-09-01T02:20:45;1.92;;;1.40;;
38208;SDS011;24016;52.102;11.584;2022-09-01T02:23:13;2.05;;;1.42;;
38208;SDS011;24016;52.102;11.584;2022-09-01T02:25:42;2.20;;;1.30;;
38208;SDS011;24016;52.102;11.584;2022-09-01T02:28:10;3.17;;;1.60;;
38208;SDS011;24016;52.102;11.584;2022-09-01T02:30:41;2.78;;;1.50;;
38208;SDS011;24016;52.102;11.584;2022-09-01T02:33:13;3.78;;;1.50;;
38208;SDS011;24016;52.102;11.584;2022-09-01T02:35:43;3.25;;;1.40;;
38208;SDS011;24016;52.102;11.584;2022-09-01T02:38:10;2.47;;;1.40;;
38208;SDS011;24016;52.102;11.584;2022-09-01T02:40:38;2.60;;;1.33;;
38208;SDS011;24016;52.102;11.584;2022-09-01T02:43:05;3.10;;;1.48;;
38208;SDS011;24016;52.102;11.584;2022-09-01T02:45:30;2.38;;;1.40;;
38208;SDS011;24016;52.102;11.584;2022-09-01T02:47:56;2.40;;;1.55;;
38208;SDS011;24016;52.102;11.584;2022-09-01T02:50:22;1.83;;;1.23;;
38208;SDS011;24016;52.102;11.584;2022-09-01T02:52:49;2.50;;;1.60;;
38208;SDS011;24016;52.102;11.584;2022-09-01T02:55:18;2.72;;;1.50;;
38208;SDS011;24016;52.102;11.584;2022-09-01T02:57:46;3.50;;;1.60;;
38208;SDS011;24016;52.102;11.584;2022-09-01T03:00:13;2.30;;;1.55;;
38208;SDS011;24016;52.102;11.584;2022-09-01T03:02:53;3.17;;;1.50;;
38208;SDS011;24016;52.102;11.584;2022-09-01T03:05:20;3.22;;;1.33;;
38208;SDS011;24016;52.102;11.584;2022-09-01T03:08:00;4.03;;;1.85;;
38208;SDS011;24016;52.102;11.584;2022-09-01T03:10:33;3.40;;;1.30;;
38208;SDS011;24016;52.102;11.584;2022-09-01T03:13:06;3.20;;;1.40;;
38208;SDS011;24016;52.102;11.584;2022-09-01T03:15:35;1.85;;;1.25;;
38208;SDS011;24016;52.102;11.584;2022-09-01T03:18:05;2.70;;;1.30;;
38208;SDS011;24016;52.102;11.584;2022-09-01T03:20:32;2.33;;;1.35;;
38208;SDS011;24016;52.102;11.584;2022-09-01T03:23:02;4.07;;;1.80;;
38208;SDS011;24016;52.102;11.584;2022-09-01T03:25:29;3.80;;;1.40;;
38208;SDS011;24016;52.102;11.584;2022-09-01T03:27:56;6.63;;;1.40;;
38208;SDS011;24016;52.102;11.584;2022-09-01T03:30:23;3.17;;;1.52;;
38208;SDS011;24016;52.102;11.584;2022-09-01T03:32:50;2.47;;;1.45;;
38208;SDS011;24016;52.102;11.584;2022-09-01T03:35:16;2.28;;;1.40;;
38208;SDS011;24016;52.102;11.584;2022-09-01T03:37:42;3.00;;;1.55;;
38208;SDS011;24016;52.102;11.584;2022-09-01T03:40:08;2.20;;;1.35;;
38208;SDS011;24016;52.102;11.584;2022-09-01T03:42:35;2.58;;;1.40;;
38208;SDS011;24016;52.102;11.584;2022-09-01T03:45:02;3.05;;;1.30;;
38208;SDS011;24016;52.102;11.584;2022-09-01T03:47:37;3.55;;;1.75;;
38208;SDS011;24016;52.102;11.584;2022-09-01T03:50:07;2.08;;;1.23;;
38208;SDS011;24016;52.102;11.584;2022-09-01T03:52:44;2.42;;;1.23;;
38208;SDS011;24016;52.102;11.584;2022-09-01T03:55:13;1.90;;;1.30;;
38208;SDS011;24016;52.102;11.584;2022-09-01T03:57:47;2.08;;;1.20;;
38208;SDS011;24016;52.102;11.584;2022-09-01T04:00:14;3.95;;;1.20;;
38208;SDS011;24016;52.102;11.584;2022-09-01T04:02:45;2.00;;;1.20;;
38208;SDS011;24016;52.102;11.584;2022-09-01T04:05:15;2.33;;;1.10;;
38208;SDS011;24016;52.102;11.584;2022-09-01T04:07:42;3.25;;;1.48;;
38208;SDS011;24016;52.102;11.584;2022-09-01T04:10:10;5.03;;;1.48;;
38208;SDS011;24016;52.102;11.584;2022-09-01T04:12:36;2.75;;;1.38;;
38208;SDS011;24016;52.102;11.584;2022-09-01T04:15:02;3.20;;;1.38;;
38208;SDS011;24016;52.102;11.584;2022-09-01T04:17:30;3.78;;;1.30;;
38208;SDS011;24016;52.102;11.584;2022-09-01T04:20:28;2.08;;;1.30;;
38208;SDS011;24016;52.102;11.584;2022-09-01T04:23:04;3.45;;;1.40;;
38208;SDS011;24016;52.102;11.584;2022-09-01T04:25:34;2.95;;;1.40;;
38208;SDS011;24016;52.102;11.584;2022-09-01T04:28:03;2.80;;;1.30;;
38208;SDS011;24016;52.102;11.584;2022-09-01T04:30:38;2.40;;;1.20;;
38208;SDS011;24016;52.102;11.584;2022-09-01T04:33:06;2.10;;;1.45;;
38208;SDS011;24016;52.102;11.584;2022-09-01T04:35:36;3.17;;;1.15;;
38208;SDS011;24016;52.102;11.584;2022-09-01T04:38:05;2.17;;;1.52;;
38208;SDS011;24016;52.102;11.584;2022-09-01T04:40:32;2.65;;;1.45;;
38208;SDS011;24016;52.102;11.584;2022-09-01T04:43:02;5.35;;;1.35;;
38208;SDS011;24016;52.102;11.584;2022-09-01T04:45:29;2.78;;;1.17;;
38208;SDS011;24016;52.102;11.584;2022-09-01T04:47:56;1.45;;;1.08;;
38208;SDS011;24016;52.102;11.584;2022-09-01T04:50:23;1.30;;;1.08;;
38208;SDS011;24016;52.102;11.584;2022-09-01T04:52:50;2.40;;;1.30;;
38208;SDS011;24016;52.102;11.584;2022-09-01T04:55:17;2.45;;;1.00;;
38208;SDS011;24016;52.102;11.584;2022-09-01T04:57:43;6.55;;;1.13;;
38208;SDS011;24016;52.102;11.584;2022-09-01T05:00:11;3.58;;;1.10;;
38208;SDS011;24016;52.102;11.584;2022-09-01T05:02:46;5.55;;;1.38;;
38208;SDS011;24016;52.102;11.584;2022-09-01T05:05:13;1.98;;;1.20;;
38208;SDS011;24016;52.102;11.584;2022-09-01T05:07:39;4.60;;;1.25;;
38208;SDS011;24016;52.102;11.584;2022-09-01T05:10:04;2.55;;;1.20;;
38208;SDS011;24016;52.102;11.584;2022-09-01T05:12:30;3.65;;;1.17;;
38208;SDS011;24016;52.102;11.584;2022-09-01T05:14:56;3.65;;;1.30;;
38208;SDS011;24016;52.102;11.584;2022-09-01T05:17:22;4.20;;;1.70;;
38208;SDS011;24016;52.102;11.584;2022-09-01T05:19:49;3.35;;;1.60;;
38208;SDS011;24016;52.102;11.584;2022-09-01T05:22:15;2.97;;;1.40;;
38208;SDS011;24016;52.102;11.584;2022-09-01T05:24:42;3.67;;;1.40;;
38208;SDS011;24016;52.102;11.584;2022-09-01T05:27:08;3.78;;;1.40;;
38208;SDS011;24016;52.102;11.584;2022-09-01T05:29:36;4.55;;;1.48;;
38208;SDS011;24016;52.102;11.584;2022-09-01T05:32:02;4.22;;;1.25;;
38208;SDS011;24016;52.102;11.584;2022-09-01T05:34:32;3.25;;;1.30;;
38208;SDS011;24016;52.102;11.584;2022-09-01T05:37:01;4.47;;;1.30;;
38208;SDS011;24016;52.102;11.584;2022-09-01T05:39:27;3.92;;;1.33;;
38208;SDS011;24016;52.102;11.584;2022-09-01T05:41:52;4.10;;;1.23;;
38208;SDS011;24016;52.102;11.584;2022-09-01T05:44:19;2.25;;;1.25;;
38208;SDS011;24016;52.102;11.584;2022-09-01T05:46:48;4.05;;;1.20;;
38208;SDS011;24016;52.102;11.584;2022-09-01T05:49:15;3.60;;;1.35;;
38208;SDS011;24016;52.102;11.584;2022-09-01T05:51:43;2.65;;;1.40;;
38208;SDS011;24016;52.102;11.584;2022-09-01T05:54:12;4.65;;;1.45;;
38208;SDS011;24016;52.102;11.584;2022-09-01T05:56:38;3.67;;;1.10;;
38208;SDS011;24016;52.102;11.584;2022-09-01T05:59:05;6.43;;;1.33;;
38208;SDS011;24016;52.102;11.584;2022-09-01T06:01:32;4.50;;;1.30;;
38208;SDS011;24016;52.102;11.584;2022-09-01T06:03:58;2.08;;;0.98;;
38208;SDS011;24016;52.102;11.584;2022-09-01T06:06:28;2.20;;;1.30;;
38208;SDS011;24016;52.102;11.584;2022-09-01T06:08:56;5.55;;;1.40;;
38208;SDS011;24016;52.102;11.584;2022-09-01T06:11:24;8.65;;;1.55;;
38208;SDS011;24016;52.102;11.584;2022-09-01T06:13:51;4.65;;;1.00;;
38208;SDS011;24016;52.102;11.584;2022-09-01T06:16:21;4.63;;;1.30;;
38208;SDS011;24016;52.102;11.584;2022-09-01T06:18:48;4.82;;;1.35;;
38208;SDS011;24016;52.102;11.584;2022-09-01T06:21:16;4.07;;;1.20;;
38208;SDS011;24016;52.102;11.584;2022-09-01T06:23:42;3.53;;;1.40;;
38208;SDS011;24016;52.102;11.584;2022-09-01T06:26:18;4.50;;;1.55;;
38208;SDS011;24016;52.102;11.584;2022-09-01T06:28:47;2.75;;;1.23;;
38208;SDS011;24016;52.102;11.584;2022-09-01T06:31:18;4.00;;;1.00;;
38208;SDS011;24016;52.102;11.584;2022-09-01T06:33:49;2.25;;;1.00;;
38208;SDS011;24016;52.102;11.584;2022-09-01T06:36:17;5.68;;;1.33;;
38208;SDS011;24016;52.102;11.584;2022-09-01T06:38:48;2.20;;;1.10;;
38208;SDS011;24016;52.102;11.584;2022-09-01T06:41:15;3.05;;;0.90;;
38208;SDS011;24016;52.102;11.584;2022-09-01T06:43:43;3.33;;;1.13;;
38208;SDS011;24016;52.102;11.584;2022-09-01T06:46:17;3.80;;;1.20;;
38208;SDS011;24016;52.102;11.584;2022-09-01T06:48:44;1.85;;;1.08;;
38208;SDS011;24016;52.102;11.584;2022-09-01T06:51:14;2.53;;;1.20;;
38208;SDS011;24016;52.102;11.584;2022-09-01T06:53:44;5.15;;;2.15;;
38208;SDS011;24016;52.102;11.584;2022-09-01T06:56:16;2.90;;;1.15;;
38208;SDS011;24016;52.102;11.584;2022-09-01T06:58:43;2.35;;;0.90;;
38208;SDS011;24016;52.102;11.584;2022-09-01T07:01:12;2.70;;;0.80;;
38208;SDS011;24016;52.102;11.584;2022-09-01T07:03:42;3.33;;;1.30;;
38208;SDS011;24016;52.102;11.584;2022-09-01T07:06:08;1.77;;;0.93;;
38208;SDS011;24016;52.102;11.584;2022-09-01T07:08:35;3.28;;;1.02;;
38208;SDS011;24016;52.102;11.584;2022-09-01T07:11:07;2.83;;;0.90;;
38208;SDS011;24016;52.102;11.584;2022-09-01T07:13:41;2.38;;;0.90;;
38208;SDS011;24016;52.102;11.584;2022-09-01T07:16:14;3.70;;;1.00;;
38208;SDS011;24016;52.102;11.584;2022-09-01T07:18:48;2.70;;;1.45;;
38208;SDS011;24016;52.102;11.584;2022-09-01T07:21:14;7.88;;;1.20;;
38208;SDS011;24016;52.102;11.584;2022-09-01T07:23:40;3.20;;;0.88;;
38208;SDS011;24016;52.102;11.584;2022-09-01T07:26:08;1.92;;;0.93;;
38208;SDS011;24016;52.102;11.584;2022-09-01T07:28:36;1.63;;;1.00;;
38208;SDS011;24016;52.102;11.584;2022-09-01T07:31:02;1.10;;;0.77;;
38208;SDS011;24016;52.102;11.584;2022-09-01T07:33:29;3.90;;;1.20;;
38208;SDS011;24016;52.102;11.584;2022-09-01T07:35:56;2.95;;;0.88;;
38208;SDS011;24016;52.102;11.584;2022-09-01T07:38:23;1.75;;;0.90;;
38208;SDS011;24016;52.102;11.584;2022-09-01T07:40:49;2.05;;;0.85;;
38208;SDS011;24016;52.102;11.584;2022-09-01T07:43:22;3.65;;;0.80;;
38208;SDS011;24016;52.102;11.584;2022-09-01T07:45:51;1.08;;;0.68;;
38208;SDS011;24016;52.102;11.584;2022-09-01T07:48:20;3.17;;;1.00;;
38208;SDS011;24016;52.102;11.584;2022-09-01T07:50:48;1.83;;;0.88;;
38208;SDS011;24016;52.102;11.584;2022-09-01T07:53:17;3.33;;;1.27;;
38208;SDS011;24016;52.102;11.584;2022-09-01T07:55:49;1.25;;;0.65;;
38208;SDS011;24016;52.102;11.584;2022-09-01T07:58:16;4.05;;;0.88;;
38208;SDS011;24016;52.102;11.584;2022-09-01T08:00:44;1.38;;;0.80;;
38208;SDS011;24016;52.102;11.584;2022-09-01T08:03:12;1.70;;;1.00;;
38208;SDS011;24016;52.102;11.584;2022-09-01T08:05:38;2.20;;;0.80;;
38208;SDS011;24016;52.102;11.584;2022-09-01T08:08:04;1.63;;;0.82;;
38208;SDS011;24016;52.102;11.584;2022-09-01T08:10:30;3.40;;;1.00;;
38208;SDS011;24016;52.102;11.584;2022-09-01T08:12:56;2.17;;;1.00;;
38208;SDS011;24016;52.102;11.584;2022-09-01T08:15:22;5.55;;;0.60;;
38208;SDS011;24016;52.102;11.584;2022-09-01T08:17:49;4.40;;;0.82;;
38208;SDS011;24016;52.102;11.584;2022-09-01T08:20:14;1.98;;;0.85;;
38208;SDS011;24016;52.102;11.584;2022-09-01T08:22:40;2.17;;;0.95;;
38208;SDS011;24016;52.102;11.584;2022-09-01T08:25:06;2.22;;;1.25;;
38208;SDS011;24016;52.102;11.584;2022-09-01T08:27:33;1.95;;;0.68;;
38208;SDS011;24016;52.102;11.584;2022-09-01T08:30:01;0.75;;;0.60;;
38208;SDS011;24016;52.102;11.584;2022-09-01T08:32:31;3.35;;;0.70;;
38208;SDS011;24016;52.102;11.584;2022-09-01T08:34:57;3.88;;;0.80;;
38208;SDS011;24016;52.102;11.584;2022-09-01T08:37:23;1.20;;;0.73;;
38208;SDS011;24016;52.102;11.584;2022-09-01T08:39:49;3.67;;;0.70;;
38208;SDS011;24016;52.102;11.584;2022-09-01T08:45:12;1.13;;;0.70;;
38208;SDS011;24016;52.102;11.584;2022-09-01T08:47:55;3.28;;;0.95;;
38208;SDS011;24016;52.102;11.584;2022-09-01T08:50:25;5.28;;;0.80;;
38208;SDS011;24016;52.102;11.584;2022-09-01T08:52:53;3.35;;;0.98;;
38208;SDS011;24016;52.102;11.584;2022-09-01T08:55:30;2.30;;;0.80;;
38208;SDS011;24016;52.102;11.584;2022-09-01T08:58:02;1.75;;;0.75;;
38208;SDS011;24016;52.102;11.584;2022-09-01T09:00:30;2.28;;;0.60;;
38208;SDS011;24016;52.102;11.584;2022-09-01T09:06:28;1.02;;;0.70;;
38208;SDS011;24016;52.102;11.584;2022-09-01T09:09:02;3.03;;;0.90;;
38208;SDS011;24016;52.102;11.584;2022-09-01T09:16:45;1.13;;;0.60;;
38208;SDS011;24016;52.102;11.584;2022-09-01T09:19:19;3.30;;;0.52;;
38208;SDS011;24016;52.102;11.584;2022-09-01T09:21:53;1.15;;;0.60;;
38208;SDS011;24016;52.102;11.584;2022-09-01T09:24:22;3.45;;;1.00;;
38208;SDS011;24016;52.102;11.584;2022-09-01T09:26:54;1.30;;;0.60;;
38208;SDS011;24016;52.102;11.584;2022-09-01T09:29:22;1.80;;;0.63;;
38208;SDS011;24016;52.102;11.584;2022-09-01T09:31:56;0.95;;;0.50;;
38208;SDS011;24016;52.102;11.584;2022-09-01T09:34:35;2.85;;;0.80;;
38208;SDS011;24016;52.102;11.584;2022-09-01T09:37:15;3.15;;;0.65;;
38208;SDS011;24016;52.102;11.584;2022-09-01T09:40:25;1.77;;;0.90;;
38208;SDS011;24016;52.102;11.584;2022-09-01T09:45:25;2.22;;;0.70;;
38208;SDS011;24016;52.102;11.584;2022-09-01T09:47:54;1.50;;;0.70;;
38208;SDS011;24016;52.102;11.584;2022-09-01T09:50:28;2.60;;;0.68;;
38208;SDS011;24016;52.102;11.584;2022-09-01T09:53:11;2.53;;;0.70;;
38208;SDS011;24016;52.102;11.584;2022-09-01T09:58:16;2.95;;;0.57;;
38208;SDS011;24016;52.102;11.584;2022-09-01T10:00:56;1.63;;;0.57;;
38208;SDS011;24016;52.102;11.584;2022-09-01T10:03:32;1.70;;;0.70;;
38208;SDS011;24016;52.102;11.584;2022-09-01T10:06:00;2.90;;;0.73;;
38208;SDS011;24016;52.102;11.584;2022-09-01T10:10:52;4.43;;;0.98;;
38208;SDS011;24016;52.102;11.584;2022-09-01T10:13:19;3.63;;;0.75;;
38208;SDS011;24016;52.102;11.584;2022-09-01T10:15:48;1.33;;;0.80;;
38208;SDS011;24016;52.102;11.584;2022-09-01T10:18:17;2.28;;;0.88;;
38208;SDS011;24016;52.102;11.584;2022-09-01T10:20:48;3.58;;;0.77;;
38208;SDS011;24016;52.102;11.584;2022-09-01T10:23:19;1.35;;;0.70;;
38208;SDS011;24016;52.102;11.584;2022-09-01T10:25:44;3.80;;;0.77;;
38208;SDS011;24016;52.102;11.584;2022-09-01T10:28:15;0.88;;;0.60;;
38208;SDS011;24016;52.102;11.584;2022-09-01T10:30:45;0.77;;;0.50;;
38208;SDS011;24016;52.102;11.584;2022-09-01T10:33:13;2.50;;;0.82;;
38208;SDS011;24016;52.102;11.584;2022-09-01T10:35:41;1.05;;;0.55;;
38208;SDS011;24016;52.102;11.584;2022-09-01T10:38:10;1.33;;;0.50;;
38208;SDS011;24016;52.102;11.584;2022-09-01T10:40:48;2.50;;;0.68;;
38208;SDS011;24016;52.102;11.584;2022-09-01T10:46:09;0.90;;;0.40;;
38208;SDS011;24016;52.102;11.584;2022-09-01T10:49:12;3.22;;;0.70;;
38208;SDS011;24016;52.102;11.584;2022-09-01T10:51:53;1.98;;;0.90;;
38208;SDS011;24016;52.102;11.584;2022-09-01T11:11:04;0.90;;;0.60;;
38208;SDS011;24016;52.102;11.584;2022-09-01T11:13:35;0.93;;;0.80;;
38208;SDS011;24016;52.102;11.584;2022-09-01T11:19:17;2.28;;;0.75;;
38208;SDS011;24016;52.102;11.584;2022-09-01T11:27:07;1.63;;;0.80;;
38208;SDS011;24016;52.102;11.584;2022-09-01T11:32:22;2.67;;;1.10;;
38208;SDS011;24016;52.102;11.584;2022-09-01T11:34:51;1.08;;;0.60;;
38208;SDS011;24016;52.102;11.584;2022-09-01T11:37:20;1.73;;;0.80;;
38208;SDS011;24016;52.102;11.584;2022-09-01T11:39:48;4.32;;;0.60;;
38208;SDS011;24016;52.102;11.584;2022-09-01T11:42:20;1.10;;;0.65;;
38208;SDS011;24016;52.102;11.584;2022-09-01T11:45:06;3.08;;;0.60;;
38208;SDS011;24016;52.102;11.584;2022-09-01T11:47:41;5.40;;;0.80;;
38208;SDS011;24016;52.102;11.584;2022-09-01T11:50:16;0.63;;;0.50;;
38208;SDS011;24016;52.102;11.584;2022-09-01T11:52:58;0.95;;;0.50;;
38208;SDS011;24016;52.102;11.584;2022-09-01T11:55:34;2.03;;;0.90;;
38208;SDS011;24016;52.102;11.584;2022-09-01T11:58:04;4.53;;;1.33;;
38208;SDS011;24016;52.102;11.584;2022-09-01T12:00:31;2.10;;;0.75;;
38208;SDS011;24016;52.102;11.584;2022-09-01T12:03:02;1.70;;;0.50;;
38208;SDS011;24016;52.102;11.584;2022-09-01T12:05:45;1.23;;;0.60;;
38208;SDS011;24016;52.102;11.584;2022-09-01T12:08:14;1.75;;;0.57;;
38208;SDS011;24016;52.102;11.584;2022-09-01T12:10:42;1.77;;;0.75;;
38208;SDS011;24016;52.102;11.584;2022-09-01T12:13:10;2.00;;;0.80;;
38208;SDS011;24016;52.102;11.584;2022-09-01T12:15:40;1.55;;;0.57;;
38208;SDS011;24016;52.102;11.584;2022-09-01T12:18:10;1.48;;;0.50;;
38208;SDS011;24016;52.102;11.584;2022-09-01T12:20:36;2.28;;;0.60;;
38208;SDS011;24016;52.102;11.584;2022-09-01T12:23:03;1.95;;;0.80;;
38208;SDS011;24016;52.102;11.584;2022-09-01T12:25:39;1.08;;;0.65;;
38208;SDS011;24016;52.102;11.584;2022-09-01T12:28:05;2.38;;;0.80;;
38208;SDS011;24016;52.102;11.584;2022-09-01T12:30:30;3.33;;;0.85;;
38208;SDS011;24016;52.102;11.584;2022-09-01T12:33:03;1.58;;;0.70;;
38208;SDS011;24016;52.102;11.584;2022-09-01T12:35:34;3.08;;;0.75;;
38208;SDS011;24016;52.102;11.584;2022-09-01T12:40:44;1.55;;;0.50;;
38208;SDS011;24016;52.102;11.584;2022-09-01T12:43:11;1.05;;;0.60;;
38208;SDS011;24016;52.102;11.584;2022-09-01T12:45:58;1.92;;;0.82;;
38208;SDS011;24016;52.102;11.584;2022-09-01T12:51:02;1.95;;;0.90;;
38208;SDS011;24016;52.102;11.584;2022-09-01T12:53:39;3.78;;;0.73;;
38208;SDS011;24016;52.102;11.584;2022-09-01T12:56:14;1.48;;;0.93;;
38208;SDS011;24016;52.102;11.584;2022-09-01T12:58:47;0.60;;;0.45;;
38208;SDS011;24016;52.102;11.584;2022-09-01T13:01:23;6.30;;;0.95;;
38208;SDS011;24016;52.102;11.584;2022-09-01T13:04:09;3.45;;;0.70;;
38208;SDS011;24016;52.102;11.584;2022-09-01T13:06:37;6.00;;;1.05;;
38208;SDS011;24016;52.102;11.584;2022-09-01T13:09:03;1.73;;;0.68;;
38208;SDS011;24016;52.102;11.584;2022-09-01T13:11:29;1.33;;;0.52;;
38208;SDS011;24016;52.102;11.584;2022-09-01T13:13:55;2.05;;;0.60;;
38208;SDS011;24016;52.102;11.584;2022-09-01T13:16:21;1.27;;;0.50;;
38208;SDS011;24016;52.102;11.584;2022-09-01T13:18:47;2.47;;;0.70;;
38208;SDS011;24016;52.102;11.584;2022-09-01T13:21:12;3.03;;;0.75;;
38208;SDS011;24016;52.102;11.584;2022-09-01T13:23:38;0.80;;;0.47;;
38208;SDS011;24016;52.102;11.584;2022-09-01T13:26:04;1.55;;;0.70;;
38208;SDS011;24016;52.102;11.584;2022-09-01T13:28:30;1.95;;;0.70;;
38208;SDS011;24016;52.102;11.584;2022-09-01T13:30:56;1.63;;;0.75;;
38208;SDS011;24016;52.102;11.584;2022-09-01T13:33:24;1.35;;;0.70;;
38208;SDS011;24016;52.102;11.584;2022-09-01T13:35:50;1.27;;;0.60;;
38208;SDS011;24016;52.102;11.584;2022-09-01T13:38:17;2.13;;;0.90;;
38208;SDS011;24016;52.102;11.584;2022-09-01T13:40:44;1.50;;;0.75;;
38208;SDS011;24016;52.102;11.584;2022-09-01T13:43:12;1.52;;;0.70;;
38208;SDS011;24016;52.102;11.584;2022-09-01T13:45:39;0.95;;;0.70;;
38208;SDS011;24016;52.102;11.584;2022-09-01T13:48:05;2.60;;;0.80;;
38208;SDS011;24016;52.102;11.584;2022-09-01T13:50:32;3.53;;;0.88;;
38208;SDS011;24016;52.102;11.584;2022-09-01T13:52:57;1.13;;;0.60;;
38208;SDS011;24016;52.102;11.584;2022-09-01T13:55:24;0.93;;;0.70;;
38208;SDS011;24016;52.102;11.584;2022-09-01T13:57:55;1.20;;;0.60;;
38208;SDS011;24016;52.102;11.584;2022-09-01T14:00:23;3.53;;;0.88;;
38208;SDS011;24016;52.102;11.584;2022-09-01T14:02:53;3.85;;;0.70;;
38208;SDS011;24016;52.102;11.584;2022-09-01T14:05:21;2.38;;;0.60;;
38208;SDS011;24016;52.102;11.584;2022-09-01T14:07:49;2.53;;;0.85;;
38208;SDS011;24016;52.102;11.584;2022-09-01T14:10:16;1.17;;;0.60;;
38208;SDS011;24016;52.102;11.584;2022-09-01T14:12:43;3.15;;;0.70;;
38208;SDS011;24016;52.102;11.584;2022-09-01T14:15:09;2.95;;;0.82;;
38208;SDS011;24016;52.102;11.584;2022-09-01T14:17:36;1.50;;;0.70;;
38208;SDS011;24016;52.102;11.584;2022-09-01T14:20:04;1.58;;;0.73;;
38208;SDS011;24016;52.102;11.584;2022-09-01T14:22:32;2.00;;;0.70;;
38208;SDS011;24016;52.102;11.584;2022-09-01T14:24:58;1.48;;;0.70;;
38208;SDS011;24016;52.102;11.584;2022-09-01T14:27:24;0.88;;;0.65;;
38208;SDS011;24016;52.102;11.584;2022-09-01T14:29:50;3.10;;;1.10;;
38208;SDS011;24016;52.102;11.584;2022-09-01T14:32:17;2.05;;;0.80;;
38208;SDS011;24016;52.102;11.584;2022-09-01T14:34:47;2.42;;;0.80;;
38208;SDS011;24016;52.102;11.584;2022-09-01T14:37:13;2.67;;;0.90;;
38208;SDS011;24016;52.102;11.584;2022-09-01T14:39:39;1.10;;;0.70;;
38208;SDS011;24016;52.102;11.584;2022-09-01T14:42:04;1.02;;;0.63;;
38208;SDS011;24016;52.102;11.584;2022-09-01T14:44:34;0.88;;;0.73;;
38208;SDS011;24016;52.102;11.584;2022-09-01T14:47:01;1.10;;;0.55;;
38208;SDS011;24016;52.102;11.584;2022-09-01T14:49:28;3.55;;;1.00;;
38208;SDS011;24016;52.102;11.584;2022-09-01T14:52:01;1.25;;;0.80;;
38208;SDS011;24016;52.102;11.584;2022-09-01T14:54:31;1.38;;;0.80;;
38208;SDS011;24016;52.102;11.584;2022-09-01T14:56:57;3.05;;;0.88;;
38208;SDS011;24016;52.102;11.584;2022-09-01T14:59:23;2.97;;;0.80;;
38208;SDS011;24016;52.102;11.584;2022-09-01T15:01:49;3.38;;;0.88;;
38208;SDS011;24016;52.102;11.584;2022-09-01T15:04:14;1.55;;;0.75;;
38208;SDS011;24016;52.102;11.584;2022-09-01T15:06:42;4.07;;;0.90;;
38208;SDS011;24016;52.102;11.584;2022-09-01T15:09:11;2.33;;;0.70;;
38208;SDS011;24016;52.102;11.584;2022-09-01T15:11:36;1.77;;;0.80;;
38208;SDS011;24016;52.102;11.584;2022-09-01T15:14:02;3.63;;;1.08;;
38208;SDS011;24016;52.102;11.584;2022-09-01T15:16:31;2.63;;;1.00;;
38208;SDS011;24016;52.102;11.584;2022-09-01T15:19:03;1.58;;;0.80;;
38208;SDS011;24016;52.102;11.584;2022-09-01T15:21:30;1.92;;;1.00;;
38208;SDS011;24016;52.102;11.584;2022-09-01T15:23:59;1.52;;;0.70;;
38208;SDS011;24016;52.102;11.584;2022-09-01T15:26:29;1.30;;;0.68;;
38208;SDS011;24016;52.102;11.584;2022-09-01T15:28:55;1.58;;;0.63;;
38208;SDS011;24016;52.102;11.584;2022-09-01T15:31:21;1.55;;;0.77;;
38208;SDS011;24016;52.102;11.584;2022-09-01T15:33:48;2.13;;;0.85;;
38208;SDS011;24016;52.102;11.584;2022-09-01T15:36:15;2.40;;;0.80;;
38208;SDS011;24016;52.102;11.584;2022-09-01T15:38:43;2.47;;;1.00;;
38208;SDS011;24016;52.102;11.584;2022-09-01T15:41:14;3.40;;;0.85;;
38208;SDS011;24016;52.102;11.584;2022-09-01T15:43:44;1.38;;;0.85;;
38208;SDS011;24016;52.102;11.584;2022-09-01T15:46:09;1.90;;;0.70;;
38208;SDS011;24016;52.102;11.584;2022-09-01T15:48:35;3.17;;;0.88;;